createdAt,value
2019-04-22T00:01:28.607Z,88.30
2019-04-22T00:04:01.391Z,88.80
2019-04-22T00:06:51.595Z,88.70
2019-04-22T00:09:24.016Z,89.00
2019-04-22T00:11:54.592Z,89.80
2019-04-22T00:14:15.074Z,90.20
2019-04-22T00:16:52.830Z,90.30
2019-04-22T00:19:24.349Z,90.30
2019-04-22T00:22:01.206Z,90.40
2019-04-22T00:24:20.473Z,90.60
2019-04-22T00:26:51.810Z,90.70
2019-04-22T00:29:46.698Z,90.80
2019-04-22T00:31:52.865Z,90.90
2019-04-22T00:34:22.507Z,91.00
2019-04-22T00:36:54.860Z,91.10
2019-04-22T00:39:28.401Z,90.90
2019-04-22T00:42:00.091Z,91.00
2019-04-22T00:44:33.341Z,91.10
2019-04-22T00:47:00.604Z,91.20
2019-04-22T00:52:03.283Z,91.30
2019-04-22T00:54:28.412Z,91.40
2019-04-22T00:56:59.121Z,91.50
2019-04-22T00:59:23.326Z,91.50
2019-04-22T01:02:00.704Z,91.20
2019-04-22T01:04:35.225Z,90.70
2019-04-22T01:07:00.760Z,91.00
2019-04-22T01:09:34.703Z,91.60
2019-04-22T01:12:04.085Z,91.90
2019-04-22T01:14:29.444Z,92.20
2019-04-22T01:17:03.085Z,92.40
2019-04-22T01:19:29.556Z,92.30
2019-04-22T01:21:58.535Z,92.20
2019-04-22T01:24:26.484Z,92.00
2019-04-22T01:26:53.718Z,92.00
2019-04-22T01:29:19.690Z,91.90
2019-04-22T01:31:40.217Z,91.60
2019-04-22T01:34:23.423Z,91.60
2019-04-22T01:36:58.699Z,91.70
2019-04-22T01:39:39.055Z,91.90
2019-04-22T01:44:38.822Z,91.80
2019-04-22T01:47:08.158Z,92.10
2019-04-22T01:49:38.315Z,93.30
2019-04-22T01:52:11.541Z,93.10
2019-04-22T01:54:43.292Z,93.00
2019-04-22T01:57:04.877Z,93.00
2019-04-22T01:59:28.642Z,93.10
2019-04-22T02:02:02.628Z,93.10
2019-04-22T02:04:50.166Z,93.60
2019-04-22T02:07:14.044Z,93.10
2019-04-22T02:09:47.578Z,93.10
2019-04-22T02:14:39.352Z,93.60
2019-04-22T02:17:09.178Z,93.50
2019-04-22T02:19:37.820Z,93.50
2019-04-22T02:22:07.054Z,93.50
2019-04-22T02:29:52.290Z,93.40
2019-04-22T02:32:24.804Z,93.40
2019-04-22T02:34:47.378Z,93.30
2019-04-22T02:37:18.769Z,93.20
2019-04-22T02:39:52.794Z,93.00
2019-04-22T02:44:43.234Z,93.00
2019-04-22T02:49:45.170Z,94.20
2019-04-22T02:52:20.330Z,94.00
2019-04-22T02:54:49.395Z,94.00
2019-04-22T02:57:22.426Z,94.30
2019-04-22T02:59:52.621Z,94.30
2019-04-22T03:04:43.756Z,94.30
2019-04-22T03:07:20.780Z,94.10
2019-04-22T03:09:51.789Z,94.00
2019-04-22T03:22:16.112Z,94.20
2019-04-22T03:25:05.882Z,94.40
2019-04-22T03:33:05.486Z,94.70
2019-04-22T03:42:52.036Z,94.50
2019-04-22T03:48:04.398Z,94.80
2019-04-22T03:52:39.112Z,94.80
2019-04-22T04:00:34.846Z,94.80
2019-04-22T04:02:45.910Z,94.80
2019-04-22T04:05:29.568Z,94.90
2019-04-22T04:08:00.366Z,95.10
2019-04-22T04:10:35.473Z,95.00
2019-04-22T04:12:49.426Z,95.10
2019-04-22T04:15:21.266Z,94.80
2019-04-22T04:17:51.485Z,94.10
2019-04-22T04:20:23.831Z,94.50
2019-04-22T04:23:00.552Z,94.40
2019-04-22T04:25:29.662Z,94.60
2019-04-22T04:30:20.954Z,94.80
2019-04-22T04:37:52.333Z,93.80
2019-04-22T04:45:33.750Z,94.50
2019-04-22T04:47:57.975Z,94.60
2019-04-22T04:50:20.617Z,94.90
2019-04-22T05:00:39.479Z,95.00
2019-04-22T05:02:53.003Z,95.00
2019-04-22T05:22:44.222Z,93.30
2019-04-22T05:25:23.601Z,93.20
2019-04-22T05:30:37.499Z,91.90
2019-04-22T05:32:47.382Z,91.00
2019-04-22T05:35:25.057Z,90.30
2019-04-22T05:40:22.942Z,88.70
2019-04-22T05:42:51.313Z,86.70
2019-04-22T05:47:52.308Z,82.40
2019-04-22T05:50:20.405Z,81.30
2019-04-22T05:52:57.291Z,81.40
2019-04-22T05:55:32.086Z,80.40
2019-04-22T05:57:57.803Z,78.50
2019-04-22T06:01:00.007Z,76.70
2019-04-22T06:02:56.649Z,75.10
2019-04-22T06:05:33.135Z,73.60
2019-04-22T06:08:02.448Z,71.30
2019-04-22T06:10:33.009Z,69.60
2019-04-22T06:12:56.245Z,67.70
2019-04-22T06:15:28.839Z,67.50
2019-04-22T06:18:14.787Z,67.10
2019-04-22T06:20:38.404Z,67.20
2019-04-22T06:25:49.524Z,63.60
2019-04-22T06:28:13.566Z,63.90
2019-04-22T06:33:13.210Z,60.20
2019-04-22T06:38:26.793Z,61.50
2019-04-22T06:40:41.664Z,62.10
2019-04-22T06:43:13.727Z,64.30
2019-04-22T06:45:41.582Z,65.40
2019-04-22T06:50:43.458Z,66.10
2019-04-22T06:53:09.009Z,65.80
2019-04-22T06:55:43.992Z,65.70
2019-04-22T06:58:10.057Z,66.40
2019-04-22T07:00:44.439Z,67.00
2019-04-22T07:03:34.803Z,67.20
2019-04-22T07:05:48.378Z,67.40
2019-04-22T07:09:01.307Z,65.60
2019-04-22T07:10:47.643Z,67.40
2019-04-22T07:13:21.145Z,66.40
2019-04-22T07:15:50.502Z,64.20
2019-04-22T07:18:18.522Z,64.20
2019-04-22T07:20:51.235Z,62.80
2019-04-22T07:23:21.450Z,58.50
2019-04-22T07:25:45.152Z,55.70
2019-04-22T07:28:15.577Z,54.90
2019-04-22T07:30:48.600Z,53.90
2019-04-22T07:35:54.918Z,51.40
2019-04-22T07:38:23.821Z,49.00
2019-04-22T07:45:51.862Z,46.20
2019-04-22T07:48:26.543Z,44.00
2019-04-22T07:51:00.672Z,43.20
2019-04-22T07:53:17.315Z,43.50
2019-04-22T07:55:45.375Z,45.20
2019-04-22T08:00:43.764Z,42.20
2019-04-22T08:03:47.083Z,45.30
2019-04-22T08:05:58.738Z,44.00
2019-04-22T08:11:06.879Z,43.00
2019-04-22T08:13:26.958Z,42.00
2019-04-22T08:15:54.178Z,41.80
2019-04-22T08:20:54.045Z,43.60
2019-04-22T08:23:28.175Z,46.70
2019-04-22T08:25:55.712Z,44.60
2019-04-22T08:28:26.270Z,45.40
2019-04-22T08:30:56.818Z,42.90
2019-04-22T08:33:29.273Z,42.60
2019-04-22T08:36:06.862Z,42.30
2019-04-22T08:38:37.707Z,41.40
2019-04-22T08:41:23.336Z,43.30
2019-04-22T08:43:55.857Z,45.20
2019-04-22T08:46:25.252Z,44.30
2019-04-22T08:48:52.836Z,41.70
2019-04-22T08:51:21.041Z,42.10
2019-04-22T08:53:57.324Z,41.90
2019-04-22T08:58:50.202Z,41.10
2019-04-22T09:01:18.838Z,40.90
2019-04-22T09:03:47.040Z,40.60
2019-04-22T09:08:52.112Z,41.40
2019-04-22T09:11:24.691Z,40.80
2019-04-22T09:13:50.666Z,40.20
2019-04-22T09:16:19.398Z,39.90
2019-04-22T09:18:50.571Z,39.00
2019-04-22T09:21:34.381Z,39.40
2019-04-22T09:23:56.868Z,38.90
2019-04-22T09:26:22.920Z,38.50
2019-04-22T09:28:53.859Z,38.50
2019-04-22T09:31:19.574Z,39.20
2019-04-22T09:33:43.200Z,39.70
2019-04-22T09:36:22.397Z,39.30
2019-04-22T09:38:46.805Z,39.20
2019-04-22T09:41:24.478Z,38.00
2019-04-22T09:43:53.699Z,37.90
2019-04-22T09:46:22.777Z,37.30
2019-04-22T09:48:51.090Z,37.60
2019-04-22T09:51:23.231Z,36.90
2019-04-22T09:53:57.867Z,36.40
2019-04-22T09:56:23.867Z,35.90
2019-04-22T09:58:53.576Z,35.60
2019-04-22T10:03:56.468Z,35.90
2019-04-22T10:06:27.787Z,35.70
2019-04-22T10:09:12.745Z,35.80
2019-04-22T10:11:27.931Z,33.60
2019-04-22T10:13:54.098Z,34.40
2019-04-22T10:16:26.223Z,33.10
2019-04-22T10:18:52.024Z,32.50
2019-04-22T10:21:31.833Z,32.50
2019-04-22T10:23:54.765Z,32.80
2019-04-22T10:26:28.400Z,33.70
2019-04-22T10:31:29.770Z,31.80
2019-04-22T10:33:46.503Z,30.40
2019-04-22T10:35:59.232Z,30.80
2019-04-22T10:38:28.379Z,31.20
2019-04-22T10:40:58.369Z,31.60
2019-04-22T10:43:27.555Z,31.80
2019-04-22T10:45:56.165Z,32.20
2019-04-22T10:48:26.075Z,30.70
2019-04-22T10:50:54.863Z,30.60
2019-04-22T10:53:23.831Z,31.70
2019-04-22T10:55:52.468Z,30.60
2019-04-22T10:58:21.371Z,29.50
2019-04-22T11:00:52.268Z,28.90
2019-04-22T11:03:22.490Z,29.20
2019-04-22T11:05:53.792Z,28.70
2019-04-22T11:08:31.539Z,29.40
2019-04-22T11:11:09.382Z,29.10
2019-04-22T11:13:22.228Z,30.60
2019-04-22T11:15:51.028Z,28.20
2019-04-22T11:18:19.915Z,28.00
2019-04-22T11:20:49.542Z,28.90
2019-04-22T11:23:18.623Z,29.20
2019-04-22T11:25:48.013Z,28.30
2019-04-22T11:28:17.959Z,28.10
2019-04-22T11:30:46.505Z,28.60
2019-04-22T11:33:16.258Z,28.10
2019-04-22T11:35:45.914Z,27.90
2019-04-22T11:38:15.105Z,27.90
2019-04-22T11:40:49.764Z,28.00
2019-04-22T11:43:14.583Z,28.40
2019-04-22T11:45:43.108Z,27.80
2019-04-22T11:48:13.151Z,27.90
2019-04-22T11:50:42.106Z,27.80
2019-04-22T11:53:10.989Z,28.50
2019-04-22T11:55:40.592Z,28.30
2019-04-22T11:58:10.553Z,27.80
2019-04-22T12:00:39.333Z,27.30
2019-04-22T12:03:09.200Z,27.50
2019-04-22T12:05:37.876Z,27.70
2019-04-22T12:08:07.270Z,28.50
2019-04-22T12:10:44.058Z,28.20
2019-04-22T12:13:06.365Z,28.80
2019-04-22T12:15:35.211Z,28.30
2019-04-22T12:18:04.252Z,28.50
2019-04-22T12:20:32.986Z,27.40
2019-04-22T12:23:03.133Z,27.10
2019-04-22T12:25:41.945Z,26.60
2019-04-22T12:28:03.245Z,28.00
2019-04-22T12:30:33.273Z,26.70
2019-04-22T12:33:02.424Z,27.20
2019-04-22T12:35:32.524Z,26.80
2019-04-22T12:38:06.101Z,26.50
2019-04-22T12:40:41.216Z,26.40
2019-04-22T12:43:04.659Z,25.60
2019-04-22T12:45:31.972Z,25.80
2019-04-22T12:48:00.476Z,26.00
2019-04-22T12:50:33.866Z,27.00
2019-04-22T12:53:03.662Z,26.80
2019-04-22T12:55:30.271Z,26.30
2019-04-22T12:58:00.916Z,26.20
2019-04-22T13:00:30.121Z,26.00
2019-04-22T13:02:58.947Z,26.50
2019-04-22T13:05:29.282Z,27.50
2019-04-22T13:07:57.874Z,26.80
2019-04-22T13:10:39.106Z,25.30
2019-04-22T13:12:56.993Z,26.20
2019-04-22T13:15:28.777Z,25.70
2019-04-22T13:18:05.779Z,26.00
2019-04-22T13:20:28.195Z,25.90
2019-04-22T13:22:57.068Z,25.60
2019-04-22T13:25:28.309Z,25.10
2019-04-22T13:27:57.400Z,24.80
2019-04-22T13:30:28.429Z,24.90
2019-04-22T13:32:56.960Z,24.90
2019-04-22T13:35:26.266Z,24.90
2019-04-22T13:37:57.226Z,25.10
2019-04-22T13:40:26.051Z,25.00
2019-04-22T13:42:55.581Z,25.00
2019-04-22T13:45:25.571Z,25.00
2019-04-22T13:48:11.217Z,25.90
2019-04-22T13:53:42.603Z,26.20
2019-04-22T13:55:54.741Z,25.00
2019-04-22T13:58:08.703Z,24.70
2019-04-22T14:00:36.627Z,24.50
2019-04-22T14:03:08.728Z,24.90
2019-04-22T14:05:40.414Z,24.70
2019-04-22T14:08:10.743Z,24.30
2019-04-22T14:10:40.476Z,24.20
2019-04-22T14:13:09.947Z,24.40
2019-04-22T14:15:40.138Z,23.80
2019-04-22T14:18:08.836Z,24.20
2019-04-22T14:20:38.570Z,23.10
2019-04-22T14:23:08.342Z,22.40
2019-04-22T14:25:38.631Z,22.10
2019-04-22T14:28:13.130Z,22.00
2019-04-22T14:30:38.783Z,21.60
2019-04-22T14:33:07.385Z,21.50
2019-04-22T14:35:38.005Z,21.70
2019-04-22T14:38:06.455Z,21.80
2019-04-22T14:40:36.659Z,22.10
2019-04-22T14:43:25.212Z,22.00
2019-04-22T14:48:36.241Z,21.30
2019-04-22T14:50:57.636Z,22.50
2019-04-22T14:53:27.574Z,21.60
2019-04-22T14:55:38.299Z,21.80
2019-04-22T14:58:07.056Z,21.40
2019-04-22T15:00:35.876Z,21.80
2019-04-22T15:03:05.761Z,22.90
2019-04-22T15:05:34.440Z,21.90
2019-04-22T15:08:03.286Z,21.80
2019-04-22T15:10:31.922Z,22.00
2019-04-22T15:13:00.800Z,21.90
2019-04-22T15:15:49.284Z,21.80
2019-04-22T15:18:19.867Z,22.40
2019-04-22T15:20:52.323Z,21.80
2019-04-22T15:23:20.473Z,21.90
2019-04-22T15:25:50.638Z,21.60
2019-04-22T15:28:19.633Z,21.10
2019-04-22T15:30:48.293Z,21.70
2019-04-22T15:33:17.247Z,21.30
2019-04-22T15:35:47.116Z,21.60
2019-04-22T15:38:15.775Z,21.30
2019-04-22T15:40:44.826Z,21.90
2019-04-22T15:43:14.841Z,21.70
2019-04-22T15:45:43.454Z,22.30
2019-04-22T15:48:11.973Z,21.70
2019-04-22T15:50:40.581Z,22.30
2019-04-22T15:53:09.781Z,21.70
2019-04-22T15:55:38.936Z,21.80
2019-04-22T15:58:07.969Z,21.70
2019-04-22T16:00:49.074Z,22.40
2019-04-22T16:03:10.076Z,22.90
2019-04-22T16:05:36.951Z,22.80
2019-04-22T16:08:06.743Z,22.60
2019-04-22T16:10:35.655Z,22.60
2019-04-22T16:13:11.535Z,22.50
2019-04-22T16:15:34.505Z,22.30
2019-04-22T16:18:06.477Z,22.30
2019-04-22T16:20:34.337Z,22.60
2019-04-22T16:23:05.579Z,22.60
2019-04-22T16:25:49.255Z,22.90
2019-04-22T16:28:19.410Z,23.60
2019-04-22T16:30:48.969Z,22.80
2019-04-22T16:33:17.693Z,23.00
2019-04-22T16:35:46.769Z,23.00
2019-04-22T16:38:15.408Z,22.70
2019-04-22T16:40:45.001Z,22.70
2019-04-22T16:43:13.672Z,23.40
2019-04-22T16:45:43.529Z,23.20
2019-04-22T16:48:13.538Z,23.40
2019-04-22T16:50:43.661Z,23.30
2019-04-22T16:53:14.135Z,23.50
2019-04-22T16:55:42.781Z,23.70
2019-04-22T16:58:12.702Z,24.00
2019-04-22T17:00:42.749Z,24.20
2019-04-22T17:03:13.141Z,24.40
2019-04-22T17:05:59.584Z,24.70
2019-04-22T17:08:28.589Z,24.80
2019-04-22T17:10:57.683Z,24.50
2019-04-22T17:13:30.298Z,24.90
2019-04-22T17:15:59.073Z,24.90
2019-04-22T17:18:27.351Z,25.40
2019-04-22T17:20:56.008Z,25.50
2019-04-22T17:23:25.543Z,25.30
2019-04-22T17:25:54.443Z,25.20
2019-04-22T17:28:23.534Z,25.30
2019-04-22T17:30:52.123Z,26.20
2019-04-22T17:33:20.972Z,26.60
2019-04-22T17:35:50.366Z,26.40
2019-04-22T17:38:27.383Z,26.30
2019-04-22T17:41:05.774Z,26.30
2019-04-22T17:43:52.827Z,26.40
2019-04-22T17:46:10.896Z,26.70
2019-04-22T17:48:53.499Z,26.60
2019-04-22T17:51:29.411Z,26.20
2019-04-22T17:53:57.765Z,26.80
2019-04-22T17:56:27.911Z,27.10
2019-04-22T17:58:57.359Z,27.10
2019-04-22T18:01:41.715Z,27.70
2019-04-22T18:03:43.617Z,27.50
2019-04-22T18:06:14.179Z,27.10
2019-04-22T18:08:54.903Z,27.20
2019-04-22T18:11:35.351Z,27.50
2019-04-22T18:14:00.417Z,27.30
2019-04-22T18:16:30.561Z,28.00
2019-04-22T18:18:59.867Z,28.00
2019-04-22T18:21:25.205Z,28.10
2019-04-22T18:23:49.352Z,27.90
2019-04-22T18:26:27.670Z,28.60
2019-04-22T18:29:02.150Z,29.10
2019-04-22T18:31:21.760Z,29.60
2019-04-22T18:33:58.845Z,30.00
2019-04-22T18:36:22.783Z,31.90
2019-04-22T18:39:04.486Z,32.80
2019-04-22T18:41:30.454Z,34.30
2019-04-22T18:43:59.886Z,36.80
2019-04-22T18:46:28.854Z,39.30
2019-04-22T18:49:03.409Z,40.10
2019-04-22T18:51:47.748Z,41.90
2019-04-22T18:54:18.215Z,42.70
2019-04-22T18:56:50.406Z,44.00
2019-04-22T18:59:17.335Z,44.90
2019-04-22T19:01:37.784Z,46.10
2019-04-22T19:04:15.197Z,46.60
2019-04-22T19:07:00.414Z,47.30
2019-04-22T19:09:34.985Z,47.60
2019-04-22T19:12:09.044Z,48.60
2019-04-22T19:14:35.055Z,49.00
2019-04-22T19:17:11.894Z,50.00
2019-04-22T19:19:35.302Z,50.00
2019-04-22T19:21:58.909Z,50.80
2019-04-22T19:24:28.925Z,51.30
2019-04-22T19:27:02.967Z,51.90
2019-04-22T19:29:31.219Z,52.50
2019-04-22T19:32:01.307Z,53.00
2019-04-22T19:34:32.020Z,52.80
2019-04-22T19:37:03.590Z,52.20
2019-04-22T19:39:28.776Z,52.60
2019-04-22T19:42:15.074Z,53.40
2019-04-22T19:44:34.266Z,53.30
2019-04-22T19:47:21.374Z,52.60
2019-04-22T19:49:39.525Z,54.00
2019-04-22T19:52:11.435Z,54.50
2019-04-22T19:54:34.162Z,55.10
2019-04-22T19:56:57.176Z,55.50
2019-04-22T19:59:25.269Z,55.70
2019-04-22T20:02:18.440Z,55.90
2019-04-22T20:04:59.673Z,56.60
2019-04-22T20:07:21.214Z,57.20
2019-04-22T20:09:58.717Z,57.90
2019-04-22T20:12:24.724Z,58.60
2019-04-22T20:14:54.465Z,58.90
2019-04-22T20:17:26.683Z,59.40
2019-04-22T20:20:18.116Z,59.80
2019-04-22T20:22:26.693Z,59.70
2019-04-22T20:24:47.090Z,59.90
2019-04-22T20:27:35.186Z,59.90
2019-04-22T20:30:01.858Z,60.30
2019-04-22T20:32:29.243Z,60.70
2019-04-22T20:35:02.791Z,61.00
2019-04-22T20:37:35.687Z,61.00
2019-04-22T20:40:00.510Z,61.90
2019-04-22T20:42:48.951Z,62.80
2019-04-22T20:44:58.528Z,63.70
2019-04-22T20:47:22.049Z,64.40
2019-04-22T20:49:58.953Z,64.80
2019-04-22T20:52:38.673Z,65.00
2019-04-22T20:55:01.475Z,65.70
2019-04-22T20:57:35.309Z,65.40
2019-04-22T20:59:55.929Z,66.30
2019-04-22T21:02:28.852Z,67.10
2019-04-22T21:04:53.698Z,67.90
2019-04-22T21:07:26.595Z,67.70
2019-04-22T21:10:06.551Z,68.10
2019-04-22T21:12:24.964Z,68.80
2019-04-22T21:15:08.087Z,68.40
2019-04-22T21:17:34.870Z,68.80
2019-04-22T21:20:06.856Z,68.60
2019-04-22T21:22:33.905Z,68.70
2019-04-22T21:25:03.566Z,69.20
2019-04-22T21:27:40.434Z,69.00
2019-04-22T21:30:00.086Z,69.10
2019-04-22T21:32:34.540Z,69.00
2019-04-22T21:35:14.433Z,69.50
2019-04-22T21:37:43.255Z,70.30
2019-04-22T21:40:06.863Z,70.20
2019-04-22T21:42:48.860Z,71.20
2019-04-22T21:45:05.507Z,71.80
2019-04-22T21:47:41.939Z,72.40
2019-04-22T21:50:28.345Z,71.70
2019-04-22T21:52:42.550Z,70.80
2019-04-22T21:55:16.671Z,70.00
2019-04-22T21:57:52.642Z,69.10
2019-04-22T22:00:22.671Z,66.70
2019-04-22T22:02:45.636Z,64.60
2019-04-22T22:05:08.243Z,62.60
2019-04-22T22:07:27.680Z,61.90
2019-04-22T22:10:11.680Z,56.00
2019-04-22T22:12:52.468Z,53.00
2019-04-22T22:15:13.516Z,51.30
2019-04-22T22:17:44.262Z,49.20
2019-04-22T22:20:13.526Z,48.00
2019-04-22T22:25:14.446Z,47.30
2019-04-22T22:27:40.551Z,46.70
2019-04-22T22:30:40.060Z,46.10
2019-04-22T22:32:47.475Z,45.90
2019-04-22T22:35:13.286Z,45.50
2019-04-22T22:37:44.483Z,45.50
2019-04-22T22:40:05.547Z,46.30
2019-04-22T22:42:35.829Z,45.60
2019-04-22T22:45:07.929Z,45.80
2019-04-22T22:47:44.173Z,45.60
2019-04-22T22:50:17.595Z,45.60
2019-04-22T22:55:20.170Z,45.60
2019-04-22T22:57:56.732Z,45.10
2019-04-22T23:00:18.437Z,45.20
2019-04-22T23:03:00.569Z,45.00
2019-04-22T23:05:15.552Z,44.50
2019-04-22T23:07:55.530Z,44.80
2019-04-22T23:10:17.509Z,45.40
2019-04-22T23:13:00.412Z,44.30
2019-04-22T23:15:18.475Z,44.70
2019-04-22T23:17:33.426Z,45.10
2019-04-22T23:20:00.043Z,45.10
2019-04-22T23:22:48.496Z,44.80
2019-04-22T23:25:24.806Z,44.60
2019-04-22T23:27:57.098Z,45.00
2019-04-22T23:30:35.917Z,44.70
2019-04-22T23:33:13.192Z,45.00
2019-04-22T23:35:43.072Z,46.10
2019-04-22T23:38:20.038Z,45.90
2019-04-22T23:40:52.774Z,46.20
2019-04-22T23:45:51.967Z,47.80
2019-04-22T23:48:14.132Z,46.40
2019-04-22T23:50:50.830Z,46.90
2019-04-22T23:53:55.867Z,46.90
2019-04-22T23:56:03.205Z,47.10
2019-04-22T23:58:49.174Z,48.10
